Terminal Aerodrome Forecast
Issued by NWS

Home | Current Version | Previous Version | Text Only | Print | Product List | Glossary On
Versions: 1 2 3 4 5 6 7 8 9 10 11 12 13 14
000
FTUS45 KLKN 010520
TAFWMC
TAF
KWMC 010520Z 0106/0206 VRB03KT 3SM HZ SCT015
     FM010630 24004KT 5SM HZ SCT120 BKN200
     FM011900 25010G18KT P6SM FEW200
     FM020000 29004KT P6SM SKC=

USA.gov is the U.S. government's official web portal to all federal, state and local government web resources and services.